sensor_id;sensor_type;location;lat;lon;timestamp;P1;durP1;ratioP1;P2;durP2;ratioP2
18532;SDS011;9396;51.510;11.934;2023-05-14T00:00:46;6.00;;;4.93;;
18532;SDS011;9396;51.510;11.934;2023-05-14T00:03:13;6.60;;;4.70;;
18532;SDS011;9396;51.510;11.934;2023-05-14T00:05:39;5.00;;;4.50;;
18532;SDS011;9396;51.510;11.934;2023-05-14T00:08:07;5.37;;;4.67;;
18532;SDS011;9396;51.510;11.934;2023-05-14T00:10:34;5.20;;;4.67;;
18532;SDS011;9396;51.510;11.934;2023-05-14T00:13:01;6.23;;;4.90;;
18532;SDS011;9396;51.510;11.934;2023-05-14T00:15:27;6.90;;;5.20;;
18532;SDS011;9396;51.510;11.934;2023-05-14T00:17:54;6.93;;;4.40;;
18532;SDS011;9396;51.510;11.934;2023-05-14T00:20:21;9.43;;;4.80;;
18532;SDS011;9396;51.510;11.934;2023-05-14T00:22:47;5.87;;;4.60;;
18532;SDS011;9396;51.510;11.934;2023-05-14T00:25:15;5.63;;;4.40;;
18532;SDS011;9396;51.510;11.934;2023-05-14T00:27:42;6.37;;;4.80;;
18532;SDS011;9396;51.510;11.934;2023-05-14T00:30:09;5.33;;;4.43;;
18532;SDS011;9396;51.510;11.934;2023-05-14T00:32:36;5.20;;;4.70;;
18532;SDS011;9396;51.510;11.934;2023-05-14T00:35:03;5.87;;;5.27;;
18532;SDS011;9396;51.510;11.934;2023-05-14T00:37:30;5.20;;;4.47;;
18532;SDS011;9396;51.510;11.934;2023-05-14T00:39:56;6.07;;;4.97;;
18532;SDS011;9396;51.510;11.934;2023-05-14T00:42:24;8.70;;;4.57;;
18532;SDS011;9396;51.510;11.934;2023-05-14T00:44:51;5.87;;;5.07;;
18532;SDS011;9396;51.510;11.934;2023-05-14T00:47:18;5.77;;;5.23;;
18532;SDS011;9396;51.510;11.934;2023-05-14T00:49:45;7.50;;;5.00;;
18532;SDS011;9396;51.510;11.934;2023-05-14T00:52:11;8.27;;;5.37;;
18532;SDS011;9396;51.510;11.934;2023-05-14T00:54:38;5.80;;;5.23;;
18532;SDS011;9396;51.510;11.934;2023-05-14T00:57:05;6.70;;;5.50;;
18532;SDS011;9396;51.510;11.934;2023-05-14T00:59:33;5.87;;;5.03;;
18532;SDS011;9396;51.510;11.934;2023-05-14T01:02:00;6.50;;;5.07;;
18532;SDS011;9396;51.510;11.934;2023-05-14T01:04:26;5.70;;;5.17;;
18532;SDS011;9396;51.510;11.934;2023-05-14T01:06:56;6.00;;;5.37;;
18532;SDS011;9396;51.510;11.934;2023-05-14T01:09:35;6.33;;;5.20;;
18532;SDS011;9396;51.510;11.934;2023-05-14T01:12:10;6.10;;;5.10;;
18532;SDS011;9396;51.510;11.934;2023-05-14T01:14:49;5.40;;;4.87;;
18532;SDS011;9396;51.510;11.934;2023-05-14T01:17:21;7.03;;;5.30;;
18532;SDS011;9396;51.510;11.934;2023-05-14T01:19:48;6.60;;;5.63;;
18532;SDS011;9396;51.510;11.934;2023-05-14T01:22:18;6.97;;;5.53;;
18532;SDS011;9396;51.510;11.934;2023-05-14T01:24:44;5.70;;;5.10;;
18532;SDS011;9396;51.510;11.934;2023-05-14T01:27:13;6.97;;;5.20;;
18532;SDS011;9396;51.510;11.934;2023-05-14T01:29:46;6.17;;;5.20;;
18532;SDS011;9396;51.510;11.934;2023-05-14T01:32:18;6.07;;;5.37;;
18532;SDS011;9396;51.510;11.934;2023-05-14T01:34:48;8.37;;;5.63;;
18532;SDS011;9396;51.510;11.934;2023-05-14T01:37:18;5.90;;;5.20;;
18532;SDS011;9396;51.510;11.934;2023-05-14T01:39:46;6.10;;;5.27;;
18532;SDS011;9396;51.510;11.934;2023-05-14T01:42:15;6.00;;;5.37;;
18532;SDS011;9396;51.510;11.934;2023-05-14T01:44:41;9.97;;;5.30;;
18532;SDS011;9396;51.510;11.934;2023-05-14T01:47:08;7.33;;;5.90;;
18532;SDS011;9396;51.510;11.934;2023-05-14T01:49:35;6.93;;;5.50;;
18532;SDS011;9396;51.510;11.934;2023-05-14T01:52:01;6.53;;;5.80;;
18532;SDS011;9396;51.510;11.934;2023-05-14T01:54:29;6.63;;;5.57;;
18532;SDS011;9396;51.510;11.934;2023-05-14T01:56:56;7.70;;;5.40;;
18532;SDS011;9396;51.510;11.934;2023-05-14T01:59:23;6.70;;;5.00;;
18532;SDS011;9396;51.510;11.934;2023-05-14T02:01:49;6.70;;;6.00;;
18532;SDS011;9396;51.510;11.934;2023-05-14T02:04:16;7.27;;;5.73;;
18532;SDS011;9396;51.510;11.934;2023-05-14T02:06:44;6.53;;;5.17;;
18532;SDS011;9396;51.510;11.934;2023-05-14T02:09:11;7.83;;;5.67;;
18532;SDS011;9396;51.510;11.934;2023-05-14T02:11:39;5.67;;;4.97;;
18532;SDS011;9396;51.510;11.934;2023-05-14T02:14:06;5.83;;;5.27;;
18532;SDS011;9396;51.510;11.934;2023-05-14T02:16:32;5.80;;;5.00;;
18532;SDS011;9396;51.510;11.934;2023-05-14T02:18:59;5.63;;;5.03;;
18532;SDS011;9396;51.510;11.934;2023-05-14T02:21:26;5.77;;;5.00;;
18532;SDS011;9396;51.510;11.934;2023-05-14T02:23:52;6.00;;;5.40;;
18532;SDS011;9396;51.510;11.934;2023-05-14T02:26:20;6.13;;;5.17;;
18532;SDS011;9396;51.510;11.934;2023-05-14T02:28:48;6.20;;;5.20;;
18532;SDS011;9396;51.510;11.934;2023-05-14T02:31:14;5.57;;;4.87;;
18532;SDS011;9396;51.510;11.934;2023-05-14T02:33:43;5.83;;;5.23;;
18532;SDS011;9396;51.510;11.934;2023-05-14T02:36:09;6.40;;;5.50;;
18532;SDS011;9396;51.510;11.934;2023-05-14T02:38:36;7.90;;;5.23;;
18532;SDS011;9396;51.510;11.934;2023-05-14T02:41:03;7.73;;;5.00;;
18532;SDS011;9396;51.510;11.934;2023-05-14T02:43:29;7.00;;;5.47;;
18532;SDS011;9396;51.510;11.934;2023-05-14T02:45:57;8.33;;;5.40;;
18532;SDS011;9396;51.510;11.934;2023-05-14T02:48:24;6.13;;;5.10;;
18532;SDS011;9396;51.510;11.934;2023-05-14T02:50:51;7.70;;;5.70;;
18532;SDS011;9396;51.510;11.934;2023-05-14T02:53:17;7.43;;;5.00;;
18532;SDS011;9396;51.510;11.934;2023-05-14T02:55:44;9.37;;;5.43;;
18532;SDS011;9396;51.510;11.934;2023-05-14T02:58:11;9.13;;;5.57;;
18532;SDS011;9396;51.510;11.934;2023-05-14T03:00:37;7.60;;;5.63;;
18532;SDS011;9396;51.510;11.934;2023-05-14T03:03:05;6.03;;;5.23;;
18532;SDS011;9396;51.510;11.934;2023-05-14T03:05:32;7.37;;;5.43;;
18532;SDS011;9396;51.510;11.934;2023-05-14T03:07:59;6.27;;;5.23;;
18532;SDS011;9396;51.510;11.934;2023-05-14T03:10:26;5.37;;;4.83;;
18532;SDS011;9396;51.510;11.934;2023-05-14T03:12:52;6.43;;;5.27;;
18532;SDS011;9396;51.510;11.934;2023-05-14T03:15:19;7.77;;;5.47;;
18532;SDS011;9396;51.510;11.934;2023-05-14T03:17:45;5.37;;;4.87;;
18532;SDS011;9396;51.510;11.934;2023-05-14T03:20:14;5.57;;;5.07;;
18532;SDS011;9396;51.510;11.934;2023-05-14T03:22:41;6.93;;;5.60;;
18532;SDS011;9396;51.510;11.934;2023-05-14T03:25:08;6.57;;;5.37;;
18532;SDS011;9396;51.510;11.934;2023-05-14T03:27:35;8.20;;;5.50;;
18532;SDS011;9396;51.510;11.934;2023-05-14T03:30:01;5.40;;;4.90;;
18532;SDS011;9396;51.510;11.934;2023-05-14T03:32:28;5.60;;;5.10;;
18532;SDS011;9396;51.510;11.934;2023-05-14T03:34:55;7.80;;;5.13;;
18532;SDS011;9396;51.510;11.934;2023-05-14T03:37:23;6.27;;;5.60;;
18532;SDS011;9396;51.510;11.934;2023-05-14T03:39:50;8.50;;;5.73;;
18532;SDS011;9396;51.510;11.934;2023-05-14T03:42:17;6.10;;;5.50;;
18532;SDS011;9396;51.510;11.934;2023-05-14T03:44:43;7.10;;;5.60;;
18532;SDS011;9396;51.510;11.934;2023-05-14T03:47:10;6.27;;;5.63;;
18532;SDS011;9396;51.510;11.934;2023-05-14T03:49:37;6.13;;;5.53;;
18532;SDS011;9396;51.510;11.934;2023-05-14T03:52:04;8.03;;;6.00;;
18532;SDS011;9396;51.510;11.934;2023-05-14T03:54:32;6.97;;;6.00;;
18532;SDS011;9396;51.510;11.934;2023-05-14T03:56:58;8.33;;;6.00;;
18532;SDS011;9396;51.510;11.934;2023-05-14T03:59:25;6.33;;;5.73;;
18532;SDS011;9396;51.510;11.934;2023-05-14T04:01:52;6.50;;;5.80;;
18532;SDS011;9396;51.510;11.934;2023-05-14T04:04:19;5.87;;;5.27;;
18532;SDS011;9396;51.510;11.934;2023-05-14T04:06:46;7.20;;;6.03;;
18532;SDS011;9396;51.510;11.934;2023-05-14T04:09:12;6.57;;;5.73;;
18532;SDS011;9396;51.510;11.934;2023-05-14T04:11:40;7.00;;;6.20;;
18532;SDS011;9396;51.510;11.934;2023-05-14T04:14:07;5.93;;;5.33;;
18532;SDS011;9396;51.510;11.934;2023-05-14T04:16:33;5.97;;;5.37;;
18532;SDS011;9396;51.510;11.934;2023-05-14T04:19:02;8.77;;;6.03;;
18532;SDS011;9396;51.510;11.934;2023-05-14T04:21:29;7.17;;;5.90;;
18532;SDS011;9396;51.510;11.934;2023-05-14T04:23:56;6.40;;;5.80;;
18532;SDS011;9396;51.510;11.934;2023-05-14T04:26:23;6.43;;;5.77;;
18532;SDS011;9396;51.510;11.934;2023-05-14T04:28:51;6.90;;;5.83;;
18532;SDS011;9396;51.510;11.934;2023-05-14T04:31:17;7.40;;;5.60;;
18532;SDS011;9396;51.510;11.934;2023-05-14T04:33:44;7.33;;;6.43;;
18532;SDS011;9396;51.510;11.934;2023-05-14T04:36:11;6.87;;;6.13;;
18532;SDS011;9396;51.510;11.934;2023-05-14T04:38:38;6.67;;;6.07;;
18532;SDS011;9396;51.510;11.934;2023-05-14T04:41:05;5.80;;;5.20;;
18532;SDS011;9396;51.510;11.934;2023-05-14T04:43:32;7.33;;;6.57;;
18532;SDS011;9396;51.510;11.934;2023-05-14T04:46:00;6.43;;;5.83;;
18532;SDS011;9396;51.510;11.934;2023-05-14T04:48:27;6.63;;;5.63;;
18532;SDS011;9396;51.510;11.934;2023-05-14T04:50:53;9.50;;;6.27;;
18532;SDS011;9396;51.510;11.934;2023-05-14T04:53:20;8.90;;;6.60;;
18532;SDS011;9396;51.510;11.934;2023-05-14T04:55:47;6.97;;;5.50;;
18532;SDS011;9396;51.510;11.934;2023-05-14T04:58:13;7.17;;;6.17;;
18532;SDS011;9396;51.510;11.934;2023-05-14T05:00:40;8.00;;;6.07;;
18532;SDS011;9396;51.510;11.934;2023-05-14T05:03:08;7.00;;;6.30;;
18532;SDS011;9396;51.510;11.934;2023-05-14T05:05:35;7.00;;;6.30;;
18532;SDS011;9396;51.510;11.934;2023-05-14T05:08:01;9.40;;;6.63;;
18532;SDS011;9396;51.510;11.934;2023-05-14T05:10:28;10.07;;;6.53;;
18532;SDS011;9396;51.510;11.934;2023-05-14T05:12:55;8.50;;;6.27;;
18532;SDS011;9396;51.510;11.934;2023-05-14T05:15:21;8.10;;;6.33;;
18532;SDS011;9396;51.510;11.934;2023-05-14T05:17:48;7.40;;;6.60;;
18532;SDS011;9396;51.510;11.934;2023-05-14T05:20:16;7.73;;;6.40;;
18532;SDS011;9396;51.510;11.934;2023-05-14T05:22:43;7.87;;;6.33;;
18532;SDS011;9396;51.510;11.934;2023-05-14T05:25:09;7.50;;;6.80;;
18532;SDS011;9396;51.510;11.934;2023-05-14T05:27:37;9.47;;;6.37;;
18532;SDS011;9396;51.510;11.934;2023-05-14T05:30:04;7.20;;;6.57;;
18532;SDS011;9396;51.510;11.934;2023-05-14T05:32:31;12.43;;;7.23;;
18532;SDS011;9396;51.510;11.934;2023-05-14T05:34:58;9.87;;;6.57;;
18532;SDS011;9396;51.510;11.934;2023-05-14T05:37:26;6.87;;;5.90;;
18532;SDS011;9396;51.510;11.934;2023-05-14T05:39:53;8.93;;;6.27;;
18532;SDS011;9396;51.510;11.934;2023-05-14T05:42:20;8.17;;;5.87;;
18532;SDS011;9396;51.510;11.934;2023-05-14T05:44:47;7.03;;;6.33;;
18532;SDS011;9396;51.510;11.934;2023-05-14T05:47:14;6.97;;;6.27;;
18532;SDS011;9396;51.510;11.934;2023-05-14T05:49:41;7.40;;;5.77;;
18532;SDS011;9396;51.510;11.934;2023-05-14T05:52:07;10.90;;;6.50;;
18532;SDS011;9396;51.510;11.934;2023-05-14T05:54:35;10.37;;;5.67;;
18532;SDS011;9396;51.510;11.934;2023-05-14T05:57:04;6.63;;;5.93;;
18532;SDS011;9396;51.510;11.934;2023-05-14T05:59:30;6.37;;;5.37;;
18532;SDS011;9396;51.510;11.934;2023-05-14T06:01:57;5.60;;;5.10;;
18532;SDS011;9396;51.510;11.934;2023-05-14T06:04:24;5.90;;;5.30;;
18532;SDS011;9396;51.510;11.934;2023-05-14T06:06:50;7.90;;;5.87;;
18532;SDS011;9396;51.510;11.934;2023-05-14T06:09:17;6.60;;;5.33;;
18532;SDS011;9396;51.510;11.934;2023-05-14T06:11:45;7.87;;;4.90;;
18532;SDS011;9396;51.510;11.934;2023-05-14T06:14:12;6.47;;;5.17;;
18532;SDS011;9396;51.510;11.934;2023-05-14T06:16:38;6.07;;;4.80;;
18532;SDS011;9396;51.510;11.934;2023-05-14T06:19:05;8.80;;;5.37;;
18532;SDS011;9396;51.510;11.934;2023-05-14T06:21:32;8.07;;;4.23;;
18532;SDS011;9396;51.510;11.934;2023-05-14T06:23:59;4.60;;;4.10;;
18532;SDS011;9396;51.510;11.934;2023-05-14T06:26:25;6.60;;;4.67;;
18532;SDS011;9396;51.510;11.934;2023-05-14T06:28:53;6.37;;;4.20;;
18532;SDS011;9396;51.510;11.934;2023-05-14T06:31:20;4.63;;;4.23;;
18532;SDS011;9396;51.510;11.934;2023-05-14T06:33:47;9.33;;;4.60;;
18532;SDS011;9396;51.510;11.934;2023-05-14T06:36:13;5.57;;;3.90;;
18532;SDS011;9396;51.510;11.934;2023-05-14T06:38:40;4.90;;;4.10;;
18532;SDS011;9396;51.510;11.934;2023-05-14T06:41:06;5.37;;;4.17;;
18532;SDS011;9396;51.510;11.934;2023-05-14T06:43:33;5.73;;;4.30;;
18532;SDS011;9396;51.510;11.934;2023-05-14T06:46:01;5.90;;;4.40;;
18532;SDS011;9396;51.510;11.934;2023-05-14T06:48:28;4.80;;;4.30;;
18532;SDS011;9396;51.510;11.934;2023-05-14T06:50:54;6.60;;;4.20;;
18532;SDS011;9396;51.510;11.934;2023-05-14T06:53:21;4.60;;;4.20;;
18532;SDS011;9396;51.510;11.934;2023-05-14T06:55:48;5.60;;;4.37;;
18532;SDS011;9396;51.510;11.934;2023-05-14T06:58:14;5.90;;;4.43;;
18532;SDS011;9396;51.510;11.934;2023-05-14T07:00:41;6.63;;;5.20;;
18532;SDS011;9396;51.510;11.934;2023-05-14T07:03:09;7.80;;;4.80;;
18532;SDS011;9396;51.510;11.934;2023-05-14T07:05:36;5.53;;;4.27;;
18532;SDS011;9396;51.510;11.934;2023-05-14T07:08:04;6.93;;;4.60;;
18532;SDS011;9396;51.510;11.934;2023-05-14T07:10:31;6.23;;;4.30;;
18532;SDS011;9396;51.510;11.934;2023-05-14T07:12:57;5.00;;;4.30;;
18532;SDS011;9396;51.510;11.934;2023-05-14T07:15:24;5.60;;;4.90;;
18532;SDS011;9396;51.510;11.934;2023-05-14T07:17:51;5.10;;;4.60;;
18532;SDS011;9396;51.510;11.934;2023-05-14T07:20:19;4.77;;;4.33;;
18532;SDS011;9396;51.510;11.934;2023-05-14T07:22:47;5.03;;;3.87;;
18532;SDS011;9396;51.510;11.934;2023-05-14T07:25:14;7.03;;;4.30;;
18532;SDS011;9396;51.510;11.934;2023-05-14T07:27:41;5.00;;;3.77;;
18532;SDS011;9396;51.510;11.934;2023-05-14T07:30:07;4.97;;;3.77;;
18532;SDS011;9396;51.510;11.934;2023-05-14T07:32:34;5.80;;;4.27;;
18532;SDS011;9396;51.510;11.934;2023-05-14T07:35:01;4.27;;;3.87;;
18532;SDS011;9396;51.510;11.934;2023-05-14T07:37:29;6.07;;;4.40;;
18532;SDS011;9396;51.510;11.934;2023-05-14T07:39:56;6.60;;;4.20;;
18532;SDS011;9396;51.510;11.934;2023-05-14T07:42:22;5.03;;;4.50;;
18532;SDS011;9396;51.510;11.934;2023-05-14T07:44:49;8.20;;;4.37;;
18532;SDS011;9396;51.510;11.934;2023-05-14T07:47:16;7.57;;;4.83;;
18532;SDS011;9396;51.510;11.934;2023-05-14T07:49:43;4.77;;;4.03;;
18532;SDS011;9396;51.510;11.934;2023-05-14T07:52:10;5.60;;;4.63;;
18532;SDS011;9396;51.510;11.934;2023-05-14T07:54:37;5.97;;;4.00;;
18532;SDS011;9396;51.510;11.934;2023-05-14T07:57:04;7.03;;;4.70;;
18532;SDS011;9396;51.510;11.934;2023-05-14T07:59:31;5.77;;;4.13;;
18532;SDS011;9396;51.510;11.934;2023-05-14T08:01:58;4.50;;;4.10;;
18532;SDS011;9396;51.510;11.934;2023-05-14T08:04:25;4.03;;;3.63;;
18532;SDS011;9396;51.510;11.934;2023-05-14T08:06:51;6.73;;;4.40;;
18532;SDS011;9396;51.510;11.934;2023-05-14T08:09:19;9.10;;;4.17;;
18532;SDS011;9396;51.510;11.934;2023-05-14T08:11:47;4.50;;;4.10;;
18532;SDS011;9396;51.510;11.934;2023-05-14T08:14:14;5.83;;;4.10;;
18532;SDS011;9396;51.510;11.934;2023-05-14T08:16:40;5.00;;;4.23;;
18532;SDS011;9396;51.510;11.934;2023-05-14T08:19:07;4.90;;;4.23;;
18532;SDS011;9396;51.510;11.934;2023-05-14T08:21:33;4.73;;;3.60;;
18532;SDS011;9396;51.510;11.934;2023-05-14T08:24:00;4.37;;;3.90;;
18532;SDS011;9396;51.510;11.934;2023-05-14T08:26:27;4.13;;;3.73;;
18532;SDS011;9396;51.510;11.934;2023-05-14T08:28:55;4.77;;;4.27;;
18532;SDS011;9396;51.510;11.934;2023-05-14T08:31:21;5.10;;;3.90;;
18532;SDS011;9396;51.510;11.934;2023-05-14T08:33:48;5.27;;;4.23;;
18532;SDS011;9396;51.510;11.934;2023-05-14T08:36:15;5.47;;;4.67;;
18532;SDS011;9396;51.510;11.934;2023-05-14T08:38:41;7.67;;;4.00;;
18532;SDS011;9396;51.510;11.934;2023-05-14T08:41:09;5.63;;;4.00;;
18532;SDS011;9396;51.510;11.934;2023-05-14T08:43:42;3.67;;;2.93;;
18532;SDS011;9396;51.510;11.934;2023-05-14T08:46:13;9.93;;;4.33;;
18532;SDS011;9396;51.510;11.934;2023-05-14T08:48:42;4.00;;;3.60;;
18532;SDS011;9396;51.510;11.934;2023-05-14T08:51:13;5.57;;;3.70;;
18532;SDS011;9396;51.510;11.934;2023-05-14T08:53:39;5.23;;;3.70;;
18532;SDS011;9396;51.510;11.934;2023-05-14T08:56:07;6.90;;;4.00;;
18532;SDS011;9396;51.510;11.934;2023-05-14T08:58:35;5.50;;;3.60;;
18532;SDS011;9396;51.510;11.934;2023-05-14T09:01:01;4.93;;;4.17;;
18532;SDS011;9396;51.510;11.934;2023-05-14T09:03:30;6.10;;;3.37;;
18532;SDS011;9396;51.510;11.934;2023-05-14T09:05:57;5.20;;;3.87;;
18532;SDS011;9396;51.510;11.934;2023-05-14T09:08:25;7.37;;;3.57;;
18532;SDS011;9396;51.510;11.934;2023-05-14T09:10:51;6.47;;;3.50;;
18532;SDS011;9396;51.510;11.934;2023-05-14T09:13:18;5.30;;;3.93;;
18532;SDS011;9396;51.510;11.934;2023-05-14T09:15:45;7.53;;;3.70;;
18532;SDS011;9396;51.510;11.934;2023-05-14T09:18:15;3.97;;;3.30;;
18532;SDS011;9396;51.510;11.934;2023-05-14T09:20:44;6.70;;;3.20;;
18532;SDS011;9396;51.510;11.934;2023-05-14T09:23:12;4.57;;;3.43;;
18532;SDS011;9396;51.510;11.934;2023-05-14T09:25:39;4.90;;;3.40;;
18532;SDS011;9396;51.510;11.934;2023-05-14T09:28:07;4.40;;;3.53;;
18532;SDS011;9396;51.510;11.934;2023-05-14T09:30:34;4.37;;;3.57;;
18532;SDS011;9396;51.510;11.934;2023-05-14T09:33:01;4.80;;;3.87;;
18532;SDS011;9396;51.510;11.934;2023-05-14T09:35:29;5.87;;;4.33;;
18532;SDS011;9396;51.510;11.934;2023-05-14T09:37:57;4.50;;;3.37;;
18532;SDS011;9396;51.510;11.934;2023-05-14T09:40:24;7.67;;;3.43;;
18532;SDS011;9396;51.510;11.934;2023-05-14T09:42:51;7.23;;;3.90;;
18532;SDS011;9396;51.510;11.934;2023-05-14T09:45:17;5.20;;;3.83;;
18532;SDS011;9396;51.510;11.934;2023-05-14T09:47:44;5.10;;;3.97;;
18532;SDS011;9396;51.510;11.934;2023-05-14T09:50:11;9.17;;;4.17;;
18532;SDS011;9396;51.510;11.934;2023-05-14T09:52:38;6.00;;;3.60;;
18532;SDS011;9396;51.510;11.934;2023-05-14T09:55:07;8.03;;;4.07;;
18532;SDS011;9396;51.510;11.934;2023-05-14T09:57:34;5.80;;;3.53;;
18532;SDS011;9396;51.510;11.934;2023-05-14T10:00:01;5.30;;;3.63;;
18532;SDS011;9396;51.510;11.934;2023-05-14T10:02:29;5.83;;;3.87;;
18532;SDS011;9396;51.510;11.934;2023-05-14T10:05:01;6.40;;;3.50;;
18532;SDS011;9396;51.510;11.934;2023-05-14T10:07:32;5.17;;;3.77;;
18532;SDS011;9396;51.510;11.934;2023-05-14T10:10:05;7.93;;;3.73;;
18532;SDS011;9396;51.510;11.934;2023-05-14T10:12:38;9.20;;;4.20;;
18532;SDS011;9396;51.510;11.934;2023-05-14T10:15:08;4.40;;;3.20;;
18532;SDS011;9396;51.510;11.934;2023-05-14T10:17:42;4.80;;;3.40;;
18532;SDS011;9396;51.510;11.934;2023-05-14T10:20:13;4.67;;;3.70;;
18532;SDS011;9396;51.510;11.934;2023-05-14T10:22:41;4.17;;;3.77;;
18532;SDS011;9396;51.510;11.934;2023-05-14T10:25:09;7.40;;;3.83;;
18532;SDS011;9396;51.510;11.934;2023-05-14T10:27:36;6.73;;;3.40;;
18532;SDS011;9396;51.510;11.934;2023-05-14T10:30:04;5.07;;;3.70;;
18532;SDS011;9396;51.510;11.934;2023-05-14T10:32:35;4.83;;;3.50;;
18532;SDS011;9396;51.510;11.934;2023-05-14T10:35:06;9.20;;;3.50;;
18532;SDS011;9396;51.510;11.934;2023-05-14T10:37:41;6.87;;;3.30;;
18532;SDS011;9396;51.510;11.934;2023-05-14T10:40:11;7.60;;;3.73;;
18532;SDS011;9396;51.510;11.934;2023-05-14T10:42:38;4.43;;;3.60;;
18532;SDS011;9396;51.510;11.934;2023-05-14T10:45:08;7.27;;;3.73;;
18532;SDS011;9396;51.510;11.934;2023-05-14T10:47:36;5.07;;;3.40;;
18532;SDS011;9396;51.510;11.934;2023-05-14T10:50:05;10.33;;;3.83;;
18532;SDS011;9396;51.510;11.934;2023-05-14T10:52:33;5.10;;;3.40;;
18532;SDS011;9396;51.510;11.934;2023-05-14T10:55:01;4.63;;;3.40;;
18532;SDS011;9396;51.510;11.934;2023-05-14T10:57:34;4.43;;;3.23;;
18532;SDS011;9396;51.510;11.934;2023-05-14T11:00:01;5.10;;;2.90;;
18532;SDS011;9396;51.510;11.934;2023-05-14T11:02:32;4.53;;;3.13;;
18532;SDS011;9396;51.510;11.934;2023-05-14T11:05:02;7.30;;;3.17;;
18532;SDS011;9396;51.510;11.934;2023-05-14T11:07:33;9.47;;;3.40;;
18532;SDS011;9396;51.510;11.934;2023-05-14T11:10:01;5.93;;;2.80;;
18532;SDS011;9396;51.510;11.934;2023-05-14T11:12:29;3.80;;;2.90;;
18532;SDS011;9396;51.510;11.934;2023-05-14T11:14:58;7.80;;;3.40;;
18532;SDS011;9396;51.510;11.934;2023-05-14T11:17:29;6.17;;;3.13;;
18532;SDS011;9396;51.510;11.934;2023-05-14T11:19:57;4.27;;;3.23;;
18532;SDS011;9396;51.510;11.934;2023-05-14T11:22:24;6.83;;;3.73;;
18532;SDS011;9396;51.510;11.934;2023-05-14T11:24:51;5.03;;;3.50;;
18532;SDS011;9396;51.510;11.934;2023-05-14T11:27:18;5.80;;;3.63;;
18532;SDS011;9396;51.510;11.934;2023-05-14T11:29:47;4.17;;;3.30;;
18532;SDS011;9396;51.510;11.934;2023-05-14T11:32:15;10.17;;;4.20;;
18532;SDS011;9396;51.510;11.934;2023-05-14T11:34:43;6.63;;;3.77;;
18532;SDS011;9396;51.510;11.934;2023-05-14T11:37:10;6.33;;;3.60;;
18532;SDS011;9396;51.510;11.934;2023-05-14T11:39:38;5.53;;;3.70;;
18532;SDS011;9396;51.510;11.934;2023-05-14T11:42:12;5.53;;;3.70;;
18532;SDS011;9396;51.510;11.934;2023-05-14T11:44:41;9.20;;;3.40;;
18532;SDS011;9396;51.510;11.934;2023-05-14T11:47:09;4.50;;;3.30;;
18532;SDS011;9396;51.510;11.934;2023-05-14T11:49:37;5.57;;;3.80;;
18532;SDS011;9396;51.510;11.934;2023-05-14T11:52:05;4.10;;;3.60;;
18532;SDS011;9396;51.510;11.934;2023-05-14T11:54:34;4.87;;;3.50;;
18532;SDS011;9396;51.510;11.934;2023-05-14T11:57:02;4.97;;;3.70;;
18532;SDS011;9396;51.510;11.934;2023-05-14T11:59:33;5.53;;;3.40;;
18532;SDS011;9396;51.510;11.934;2023-05-14T12:02:00;5.37;;;4.10;;
18532;SDS011;9396;51.510;11.934;2023-05-14T12:04:28;5.47;;;3.63;;
18532;SDS011;9396;51.510;11.934;2023-05-14T12:06:57;6.50;;;4.07;;
18532;SDS011;9396;51.510;11.934;2023-05-14T12:09:25;5.00;;;3.20;;
18532;SDS011;9396;51.510;11.934;2023-05-14T12:11:51;5.30;;;3.90;;
18532;SDS011;9396;51.510;11.934;2023-05-14T12:14:19;5.20;;;3.80;;
18532;SDS011;9396;51.510;11.934;2023-05-14T12:16:46;5.93;;;3.50;;
18532;SDS011;9396;51.510;11.934;2023-05-14T12:19:14;7.97;;;3.87;;
18532;SDS011;9396;51.510;11.934;2023-05-14T12:21:42;5.87;;;3.97;;
18532;SDS011;9396;51.510;11.934;2023-05-14T12:24:12;5.30;;;4.00;;
18532;SDS011;9396;51.510;11.934;2023-05-14T12:26:42;3.93;;;3.53;;
18532;SDS011;9396;51.510;11.934;2023-05-14T12:29:11;8.03;;;3.83;;
18532;SDS011;9396;51.510;11.934;2023-05-14T12:31:43;5.53;;;3.93;;
18532;SDS011;9396;51.510;11.934;2023-05-14T12:34:11;6.57;;;3.90;;
18532;SDS011;9396;51.510;11.934;2023-05-14T12:36:38;5.97;;;3.30;;
18532;SDS011;9396;51.510;11.934;2023-05-14T12:39:05;5.47;;;3.70;;
18532;SDS011;9396;51.510;11.934;2023-05-14T12:41:33;4.67;;;3.33;;
18532;SDS011;9396;51.510;11.934;2023-05-14T12:44:00;5.17;;;3.60;;
18532;SDS011;9396;51.510;11.934;2023-05-14T12:46:28;4.17;;;3.63;;
18532;SDS011;9396;51.510;11.934;2023-05-14T12:48:55;5.03;;;3.60;;
18532;SDS011;9396;51.510;11.934;2023-05-14T12:51:22;3.37;;;3.07;;
18532;SDS011;9396;51.510;11.934;2023-05-14T12:53:49;5.60;;;3.60;;
18532;SDS011;9396;51.510;11.934;2023-05-14T12:56:18;5.60;;;3.80;;
18532;SDS011;9396;51.510;11.934;2023-05-14T12:58:46;4.73;;;3.40;;
18532;SDS011;9396;51.510;11.934;2023-05-14T13:01:13;7.33;;;3.57;;
18532;SDS011;9396;51.510;11.934;2023-05-14T13:03:40;3.97;;;3.57;;
18532;SDS011;9396;51.510;11.934;2023-05-14T13:06:06;6.80;;;3.70;;
18532;SDS011;9396;51.510;11.934;2023-05-14T13:08:33;5.17;;;3.87;;
18532;SDS011;9396;51.510;11.934;2023-05-14T13:11:00;3.77;;;3.17;;
18532;SDS011;9396;51.510;11.934;2023-05-14T13:13:27;5.63;;;3.47;;
18532;SDS011;9396;51.510;11.934;2023-05-14T13:15:55;5.00;;;3.67;;
18532;SDS011;9396;51.510;11.934;2023-05-14T13:18:22;5.27;;;3.20;;
18532;SDS011;9396;51.510;11.934;2023-05-14T13:20:50;6.60;;;3.23;;
18532;SDS011;9396;51.510;11.934;2023-05-14T13:23:17;5.20;;;3.20;;
18532;SDS011;9396;51.510;11.934;2023-05-14T13:25:44;6.67;;;3.87;;
18532;SDS011;9396;51.510;11.934;2023-05-14T13:28:10;4.70;;;3.10;;
18532;SDS011;9396;51.510;11.934;2023-05-14T13:30:37;5.33;;;3.27;;
18532;SDS011;9396;51.510;11.934;2023-05-14T13:33:05;5.03;;;3.33;;
18532;SDS011;9396;51.510;11.934;2023-05-14T13:35:32;6.83;;;3.60;;
18532;SDS011;9396;51.510;11.934;2023-05-14T13:37:59;7.43;;;3.50;;
18532;SDS011;9396;51.510;11.934;2023-05-14T13:40:25;7.53;;;3.67;;
18532;SDS011;9396;51.510;11.934;2023-05-14T13:42:52;3.00;;;2.70;;
18532;SDS011;9396;51.510;11.934;2023-05-14T13:45:19;4.90;;;3.30;;
18532;SDS011;9396;51.510;11.934;2023-05-14T13:47:45;5.97;;;3.27;;
18532;SDS011;9396;51.510;11.934;2023-05-14T13:50:13;3.57;;;2.90;;
18532;SDS011;9396;51.510;11.934;2023-05-14T13:52:40;5.50;;;3.00;;
18532;SDS011;9396;51.510;11.934;2023-05-14T13:55:07;4.70;;;3.03;;
18532;SDS011;9396;51.510;11.934;2023-05-14T13:57:34;6.57;;;3.10;;
18532;SDS011;9396;51.510;11.934;2023-05-14T14:00:00;4.53;;;3.13;;
18532;SDS011;9396;51.510;11.934;2023-05-14T14:02:29;4.40;;;3.07;;
18532;SDS011;9396;51.510;11.934;2023-05-14T14:04:55;7.50;;;3.00;;
18532;SDS011;9396;51.510;11.934;2023-05-14T14:07:23;8.20;;;3.17;;
18532;SDS011;9396;51.510;11.934;2023-05-14T14:09:50;3.53;;;2.80;;
18532;SDS011;9396;51.510;11.934;2023-05-14T14:12:16;3.30;;;2.87;;
18532;SDS011;9396;51.510;11.934;2023-05-14T14:14:43;4.87;;;3.10;;
18532;SDS011;9396;51.510;11.934;2023-05-14T14:17:10;4.20;;;3.53;;
18532;SDS011;9396;51.510;11.934;2023-05-14T14:19:37;6.47;;;3.10;;
18532;SDS011;9396;51.510;11.934;2023-05-14T14:22:03;5.37;;;3.17;;
18532;SDS011;9396;51.510;11.934;2023-05-14T14:24:31;4.97;;;3.03;;
18532;SDS011;9396;51.510;11.934;2023-05-14T14:26:58;3.13;;;2.77;;
18532;SDS011;9396;51.510;11.934;2023-05-14T14:29:26;4.43;;;3.10;;
18532;SDS011;9396;51.510;11.934;2023-05-14T14:31:55;4.10;;;3.27;;
18532;SDS011;9396;51.510;11.934;2023-05-14T14:34:21;4.57;;;3.60;;
18532;SDS011;9396;51.510;11.934;2023-05-14T14:36:48;4.83;;;3.40;;
18532;SDS011;9396;51.510;11.934;2023-05-14T14:39:15;5.03;;;3.57;;
18532;SDS011;9396;51.510;11.934;2023-05-14T14:41:43;3.90;;;3.37;;
18532;SDS011;9396;51.510;11.934;2023-05-14T14:44:09;8.33;;;3.50;;
18532;SDS011;9396;51.510;11.934;2023-05-14T14:46:36;4.63;;;3.70;;
18532;SDS011;9396;51.510;11.934;2023-05-14T14:49:02;5.13;;;3.37;;